CSN3551 ZSSS-ZSPD
Flight info
| Callsign | CSN3551 |
|---|---|
| Flight time | 0h 21m |
| Altitude | 8900 |
| Route | ZSSS DCT AND DCT ZSPD |
| Aircraft | A320/M-SDE2E3FGHIRWXY/LB1 |
Departure
| Time | 2026-04-30 10:11 |
|---|---|
| Airport | Shanghai Hongqiao International Airport (ZSSS) |
Arrival
| Time | 2026-04-30 10:33 |
|---|---|
| Airport | Shanghai Pudong International Airport (ZSPD) |
| Time | Latitude | Longitude | Altitude | Speed | Heading |
|---|---|---|---|---|---|
| 2026-04-30 09:53 | 31.19335 | 121.32759 | 19 ft | 0 kts | 357° |
| 2026-04-30 10:01 | 31.19317 | 121.32760 | 20 ft | 2 kts | 357° |
| 2026-04-30 10:01 | 31.19300 | 121.32761 | 20 ft | 2 kts | 357° |
| 2026-04-30 10:01 | 31.19282 | 121.32762 | 21 ft | 3 kts | 9° |
| 2026-04-30 10:02 | 31.19256 | 121.32738 | 20 ft | 2 kts | 83° |
| 2026-04-30 10:02 | 31.19255 | 121.32736 | 20 ft | 0 kts | 84° |
| 2026-04-30 10:04 | 31.19256 | 121.32742 | 19 ft | 3 kts | 84° |
| 2026-04-30 10:05 | 31.19257 | 121.32794 | 19 ft | 0 kts | 92° |
| 2026-04-30 10:06 | 31.19255 | 121.32822 | 19 ft | 9 kts | 97° |
| 2026-04-30 10:06 | 31.19245 | 121.32916 | 19 ft | 3 kts | 92° |
| 2026-04-30 10:06 | 31.19244 | 121.32965 | 19 ft | 11 kts | 92° |
| 2026-04-30 10:06 | 31.19185 | 121.33012 | 19 ft | 12 kts | 172° |
| 2026-04-30 10:07 | 31.19093 | 121.33012 | 19 ft | 14 kts | 177° |
| 2026-04-30 10:07 | 31.18985 | 121.33017 | 19 ft | 17 kts | 178° |
| 2026-04-30 10:07 | 31.18860 | 121.33024 | 22 ft | 19 kts | 177° |
| 2026-04-30 10:07 | 31.18720 | 121.33032 | 19 ft | 21 kts | 178° |
| 2026-04-30 10:08 | 31.18562 | 121.33040 | 19 ft | 24 kts | 178° |
| 2026-04-30 10:08 | 31.18405 | 121.33047 | 19 ft | 14 kts | 179° |
| 2026-04-30 10:08 | 31.18341 | 121.33079 | 19 ft | 6 kts | 118° |
| 2026-04-30 10:08 | 31.18339 | 121.33136 | 19 ft | 8 kts | 87° |
| 2026-04-30 10:09 | 31.18343 | 121.33212 | 19 ft | 11 kts | 88° |
| 2026-04-30 10:09 | 31.18357 | 121.33305 | 19 ft | 13 kts | 56° |
| 2026-04-30 10:09 | 31.18403 | 121.33322 | 20 ft | 0 kts | 354° |
| 2026-04-30 10:10 | 31.18482 | 121.33315 | 21 ft | 38 kts | 356° |
| 2026-04-30 10:11 | 31.19024 | 121.33288 | 20 ft | 114 kts | 357° |
| 2026-04-30 10:11 | 31.19988 | 121.33234 | 188 ft | 152 kts | 356° |
| 2026-04-30 10:11 | 31.21043 | 121.33173 | 918 ft | 151 kts | 356° |
| 2026-04-30 10:11 | 31.22080 | 121.33110 | 1722 ft | 148 kts | 356° |
| 2026-04-30 10:12 | 31.23095 | 121.33045 | 2335 ft | 146 kts | 356° |
| 2026-04-30 10:12 | 31.24114 | 121.32985 | 2860 ft | 147 kts | 357° |
| 2026-04-30 10:12 | 31.25150 | 121.32930 | 3291 ft | 156 kts | 357° |
| 2026-04-30 10:12 | 31.26313 | 121.32862 | 3565 ft | 178 kts | 356° |
| 2026-04-30 10:13 | 31.27624 | 121.32767 | 3857 ft | 201 kts | 355° |
| 2026-04-30 10:13 | 31.29105 | 121.32623 | 4199 ft | 226 kts | 355° |
| 2026-04-30 10:13 | 31.30756 | 121.32467 | 4652 ft | 249 kts | 355° |
| 2026-04-30 10:13 | 31.32519 | 121.32302 | 5430 ft | 257 kts | 355° |
| 2026-04-30 10:14 | 31.34316 | 121.32132 | 6360 ft | 261 kts | 354° |
| 2026-04-30 10:14 | 31.36147 | 121.32041 | 6746 ft | 265 kts | 5° |
| 2026-04-30 10:14 | 31.39170 | 121.34369 | 6907 ft | 277 kts | 59° |
| 2026-04-30 10:15 | 31.39719 | 121.36536 | 6913 ft | 282 kts | 80° |
| 2026-04-30 10:15 | 31.39855 | 121.38052 | 6912 ft | 283 kts | 82° |
| 2026-04-30 10:15 | 31.40059 | 121.41125 | 6914 ft | 283 kts | 83° |
| 2026-04-30 10:15 | 31.40153 | 121.42649 | 6910 ft | 283 kts | 83° |
| 2026-04-30 10:16 | 31.40293 | 121.44949 | 6912 ft | 284 kts | 83° |
| 2026-04-30 10:16 | 31.40433 | 121.47250 | 6911 ft | 283 kts | 83° |
| 2026-04-30 10:16 | 31.40572 | 121.49550 | 6911 ft | 283 kts | 83° |
| 2026-04-30 10:17 | 31.40698 | 121.54159 | 6906 ft | 286 kts | 99° |
| 2026-04-30 10:17 | 31.38369 | 121.57810 | 6910 ft | 291 kts | 154° |
| 2026-04-30 10:17 | 31.36464 | 121.58600 | 6961 ft | 291 kts | 163° |
| 2026-04-30 10:18 | 31.34531 | 121.59320 | 6947 ft | 291 kts | 163° |
| 2026-04-30 10:18 | 31.32598 | 121.60032 | 6944 ft | 291 kts | 163° |
| 2026-04-30 10:18 | 31.30669 | 121.60752 | 6918 ft | 291 kts | 163° |
| 2026-04-30 10:19 | 31.26820 | 121.62205 | 6920 ft | 290 kts | 163° |
| 2026-04-30 10:19 | 31.24897 | 121.62928 | 6933 ft | 291 kts | 163° |
| 2026-04-30 10:19 | 31.22970 | 121.63650 | 6950 ft | 291 kts | 163° |
| 2026-04-30 10:19 | 31.21043 | 121.64371 | 6959 ft | 291 kts | 163° |
| 2026-04-30 10:20 | 31.19118 | 121.65090 | 6984 ft | 290 kts | 163° |
| 2026-04-30 10:20 | 31.15279 | 121.66524 | 6918 ft | 287 kts | 163° |
| 2026-04-30 10:20 | 31.13383 | 121.67231 | 6906 ft | 286 kts | 163° |
| 2026-04-30 10:21 | 31.11488 | 121.67936 | 6897 ft | 286 kts | 163° |
| 2026-04-30 10:21 | 31.09586 | 121.68643 | 6892 ft | 287 kts | 163° |
| 2026-04-30 10:21 | 31.07684 | 121.69348 | 6616 ft | 287 kts | 163° |
| 2026-04-30 10:21 | 31.05779 | 121.70052 | 6282 ft | 286 kts | 163° |
| 2026-04-30 10:22 | 31.03887 | 121.70743 | 5962 ft | 284 kts | 163° |
| 2026-04-30 10:22 | 31.02007 | 121.71388 | 5668 ft | 282 kts | 164° |
| 2026-04-30 10:22 | 31.00150 | 121.72014 | 5503 ft | 274 kts | 163° |
| 2026-04-30 10:22 | 30.98359 | 121.72645 | 5400 ft | 264 kts | 163° |
| 2026-04-30 10:23 | 30.96653 | 121.73251 | 5409 ft | 249 kts | 163° |
| 2026-04-30 10:23 | 30.95051 | 121.73837 | 5407 ft | 235 kts | 162° |
| 2026-04-30 10:23 | 30.93529 | 121.74410 | 5285 ft | 226 kts | 162° |
| 2026-04-30 10:23 | 30.92058 | 121.74974 | 5020 ft | 217 kts | 162° |
| 2026-04-30 10:24 | 30.90640 | 121.75517 | 4805 ft | 213 kts | 162° |
| 2026-04-30 10:24 | 30.89235 | 121.76046 | 4520 ft | 212 kts | 162° |
| 2026-04-30 10:24 | 30.87849 | 121.76549 | 4354 ft | 204 kts | 163° |
| 2026-04-30 10:24 | 30.86532 | 121.77063 | 4177 ft | 196 kts | 149° |
| 2026-04-30 10:25 | 30.85699 | 121.78219 | 4004 ft | 189 kts | 104° |
| 2026-04-30 10:25 | 30.85721 | 121.79735 | 3819 ft | 192 kts | 71° |
| 2026-04-30 10:25 | 30.86098 | 121.81209 | 3618 ft | 187 kts | 70° |
| 2026-04-30 10:25 | 30.86483 | 121.82629 | 3427 ft | 182 kts | 69° |
| 2026-04-30 10:26 | 30.86852 | 121.84031 | 3253 ft | 185 kts | 70° |
| 2026-04-30 10:26 | 30.87217 | 121.85462 | 3120 ft | 183 kts | 70° |
| 2026-04-30 10:26 | 30.87578 | 121.86865 | 3072 ft | 178 kts | 65° |
| 2026-04-30 10:26 | 30.88275 | 121.87992 | 3076 ft | 170 kts | 33° |
| 2026-04-30 10:27 | 30.89365 | 121.88447 | 3017 ft | 167 kts | 4° |
| 2026-04-30 10:27 | 30.90447 | 121.88085 | 3020 ft | 165 kts | 332° |
| 2026-04-30 10:27 | 30.91447 | 121.87448 | 3030 ft | 164 kts | 334° |
| 2026-04-30 10:27 | 30.92516 | 121.86968 | 3073 ft | 166 kts | 343° |
| 2026-04-30 10:28 | 30.93637 | 121.86536 | 3085 ft | 173 kts | 342° |
| 2026-04-30 10:28 | 30.94802 | 121.86128 | 3106 ft | 176 kts | 345° |
| 2026-04-30 10:28 | 30.95983 | 121.85708 | 3079 ft | 177 kts | 341° |
| 2026-04-30 10:28 | 30.97149 | 121.85255 | 3009 ft | 177 kts | 344° |
| 2026-04-30 10:29 | 30.98325 | 121.84810 | 2827 ft | 175 kts | 343° |
| 2026-04-30 10:29 | 30.99456 | 121.84361 | 2670 ft | 170 kts | 342° |
| 2026-04-30 10:29 | 31.00580 | 121.83915 | 2464 ft | 171 kts | 343° |
| 2026-04-30 10:29 | 31.01710 | 121.83520 | 2228 ft | 168 kts | 346° |
| 2026-04-30 10:30 | 31.02811 | 121.83134 | 1997 ft | 163 kts | 343° |
| 2026-04-30 10:30 | 31.03850 | 121.82732 | 1794 ft | 147 kts | 345° |
| 2026-04-30 10:30 | 31.04761 | 121.82367 | 1604 ft | 133 kts | 344° |
| 2026-04-30 10:30 | 31.05640 | 121.82037 | 1417 ft | 133 kts | 346° |
| 2026-04-30 10:31 | 31.06521 | 121.81734 | 1234 ft | 133 kts | 346° |
| 2026-04-30 10:31 | 31.07403 | 121.81404 | 1054 ft | 133 kts | 344° |
| 2026-04-30 10:31 | 31.08279 | 121.81063 | 892 ft | 131 kts | 344° |
| 2026-04-30 10:31 | 31.09141 | 121.80742 | 706 ft | 130 kts | 345° |
| 2026-04-30 10:32 | 31.10005 | 121.80403 | 534 ft | 132 kts | 345° |
| 2026-04-30 10:32 | 31.10912 | 121.80057 | 390 ft | 141 kts | 344° |
| 2026-04-30 10:32 | 31.11848 | 121.79705 | 209 ft | 140 kts | 344° |
| 2026-04-30 10:32 | 31.12776 | 121.79356 | 35 ft | 140 kts | 343° |
| 2026-04-30 10:33 | 31.13500 | 121.79085 | 25 ft | 49 kts | 342° |
| 2026-04-30 10:33 | 31.13733 | 121.78992 | 23 ft | 33 kts | 341° |
| 2026-04-30 10:33 | 31.13886 | 121.78937 | 22 ft | 0 kts | 341° |
| 2026-04-30 10:33 | 31.13901 | 121.78932 | 23 ft | 5 kts | 342° |
| 2026-04-30 10:34 | 31.13967 | 121.78907 | 21 ft | 14 kts | 343° |
| 2026-04-30 10:34 | 31.14129 | 121.78868 | 21 ft | 31 kts | 357° |
| 2026-04-30 10:34 | 31.14306 | 121.78895 | 23 ft | 24 kts | 11° |
| 2026-04-30 10:34 | 31.14478 | 121.78918 | 23 ft | 26 kts | 354° |
| 2026-04-30 10:35 | 31.14627 | 121.78867 | 24 ft | 22 kts | 342° |
| 2026-04-30 10:35 | 31.14737 | 121.78855 | 25 ft | 9 kts | 45° |
| 2026-04-30 10:35 | 31.14761 | 121.78930 | 26 ft | 11 kts | 72° |
| 2026-04-30 10:35 | 31.14764 | 121.78941 | 25 ft | 0 kts | 72° |
| 2026-04-30 10:36 | 31.14769 | 121.78960 | 24 ft | 9 kts | 72° |
| 2026-04-30 10:36 | 31.14808 | 121.79103 | 27 ft | 27 kts | 69° |
| 2026-04-30 10:36 | 31.14837 | 121.79206 | 27 ft | 1 kts | 74° |
| 2026-04-30 10:36 | 31.14842 | 121.79225 | 24 ft | 0 kts | 73° |
| 2026-04-30 10:37 | 31.14847 | 121.79244 | 26 ft | 7 kts | 72° |
| 2026-04-30 10:37 | 31.14873 | 121.79337 | 23 ft | 17 kts | 72° |
| 2026-04-30 10:37 | 31.14958 | 121.79367 | 23 ft | 15 kts | 346° |
| 2026-04-30 10:37 | 31.15069 | 121.79326 | 23 ft | 18 kts | 342° |
| 2026-04-30 10:38 | 31.15160 | 121.79317 | 23 ft | 12 kts | 37° |
| 2026-04-30 10:38 | 31.15199 | 121.79425 | 23 ft | 18 kts | 71° |
| 2026-04-30 10:38 | 31.15255 | 121.79568 | 23 ft | 18 kts | 71° |
| 2026-04-30 10:38 | 31.15268 | 121.79615 | 23 ft | 0 kts | 72° |